Time;durP1;ratioP1;P1;durP2;ratioP2;P2;SDS_P1;SDS_P2;PMS_P1;PMS_P2;Temp;Humidity;BMP_temperature;BMP_pressure;BME280_temperature;BME280_humidity;BME280_pressure;Samples;Min_cycle;Max_cycle;Signal;HPM_P1;HPM_P2
2021/06/29 00:02:05;;;;;;;29.50;17.90;;;;;;;19.41;100.00;101219.34;3590053;40;20299;-62
2021/06/29 00:04:32;;;;;;;28.20;16.77;;;;;;;19.34;100.00;101204.75;3593582;39;20032;-62
2021/06/29 00:06:58;;;;;;;21.38;15.63;;;;;;;19.30;100.00;101206.16;3593430;40;20349;-62
2021/06/29 00:09:25;;;;;;;21.50;16.67;;;;;;;19.32;100.00;101206.84;3591160;39;20056;-61
2021/06/29 00:11:51;;;;;;;20.60;15.10;;;;;;;19.35;100.00;101201.84;3592467;40;20032;-62
2021/06/29 00:14:19;;;;;;;24.10;16.40;;;;;;;19.44;100.00;101184.34;3595325;39;20038;-62
2021/06/29 00:16:45;;;;;;;24.90;17.45;;;;;;;19.49;100.00;101186.50;3594972;40;20044;-62
2021/06/29 00:19:12;;;;;;;26.50;18.15;;;;;;;19.44;100.00;101191.69;3594343;39;20054;-62
2021/06/29 00:21:38;;;;;;;26.27;18.17;;;;;;;19.38;100.00;101181.53;3593391;39;20034;-63
2021/06/29 00:24:06;;;;;;;29.45;18.10;;;;;;;19.43;100.00;101187.25;3591808;40;20050;-62
2021/06/29 00:26:32;;;;;;;28.52;17.35;;;;;;;19.53;100.00;101190.56;3594390;40;20050;-63
2021/06/29 00:28:59;;;;;;;33.55;16.90;;;;;;;19.62;100.00;101185.84;3593548;39;20072;-62
2021/06/29 00:31:27;;;;;;;27.05;18.55;;;;;;;19.54;100.00;101186.81;3591320;40;20036;-63
2021/06/29 00:33:54;;;;;;;27.10;17.55;;;;;;;19.61;100.00;101193.22;3590034;40;20227;-62
2021/06/29 00:39:11;;;;;;;26.77;18.00;;;;;;;19.63;100.00;101189.47;3601905;22;20036;-63
2021/06/29 00:41:38;;;;;;;29.80;19.02;;;;;;;19.57;100.00;101188.31;3604664;39;20059;-62
2021/06/29 00:44:05;;;;;;;31.13;19.00;;;;;;;19.56;100.00;101192.91;3602307;39;20055;-62
2021/06/29 00:46:32;;;;;;;32.33;19.90;;;;;;;19.58;100.00;101185.41;3604268;39;20042;-61
2021/06/29 00:48:59;;;;;;;29.10;19.30;;;;;;;19.63;100.00;101184.84;3603195;39;20042;-62
2021/06/29 00:51:25;;;;;;;32.35;19.45;;;;;;;19.64;100.00;101194.72;3603411;39;20059;-62
2021/06/29 00:53:52;;;;;;;32.83;21.08;;;;;;;19.63;100.00;101192.19;3602175;39;20333;-62
2021/06/29 00:56:20;;;;;;;31.00;19.27;;;;;;;19.61;100.00;101187.75;3602995;39;20064;-62
2021/06/29 00:58:48;;;;;;;27.67;19.40;;;;;;;19.58;100.00;101188.13;3599775;39;20051;-62
2021/06/29 01:01:15;;;;;;;29.35;20.33;;;;;;;19.64;100.00;101189.25;3602486;39;20336;-62
2021/06/29 01:03:43;;;;;;;25.77;19.02;;;;;;;19.71;100.00;101190.22;3604624;39;20044;-62
2021/06/29 01:06:12;;;;;;;29.27;20.45;;;;;;;19.65;100.00;101190.09;3601901;39;20058;-62
2021/06/29 01:08:40;;;;;;;29.83;19.48;;;;;;;19.66;100.00;101194.53;3604078;39;20418;-62
2021/06/29 01:11:08;;;;;;;30.95;20.98;;;;;;;19.65;100.00;101195.56;3602631;39;20055;-62
2021/06/29 01:13:37;;;;;;;25.45;17.05;;;;;;;19.79;100.00;101192.03;3602085;39;20061;-62
2021/06/29 01:16:05;;;;;;;28.05;17.70;;;;;;;19.77;100.00;101189.44;3601433;39;20467;-62
2021/06/29 01:18:32;;;;;;;25.50;17.58;;;;;;;19.87;100.00;101186.44;3603363;39;20048;-62
2021/06/29 01:21:00;;;;;;;25.38;17.95;;;;;;;19.88;100.00;101190.03;3603704;39;20403;-62
2021/06/29 01:23:28;;;;;;;24.95;18.55;;;;;;;19.98;100.00;101189.72;3601939;39;20307;-62
2021/06/29 01:26:07;;;;;;;23.67;17.10;;;;;;;19.92;100.00;101177.69;3604128;39;20051;-62
2021/06/29 01:28:37;;;;;;;;;;;;;;;19.91;100.00;101167.81;3602195;39;20060;-62
2021/06/29 01:31:06;;;;;;;27.25;18.27;;;;;;;19.98;100.00;101156.94;3603037;39;19946;-62
2021/06/29 01:33:31;;;;;;;34.72;20.40;;;;;;;19.94;100.00;101151.03;3601410;39;20426;-62
2021/06/29 01:35:59;;;;;;;29.50;18.85;;;;;;;19.99;100.00;101145.81;3603637;39;20054;-61
2021/06/29 01:38:26;;;;;;;30.08;21.08;;;;;;;19.91;100.00;101141.31;3604800;39;20047;-62
2021/06/29 01:40:53;;;;;;;43.83;23.63;;;;;;;19.94;100.00;101135.47;3600003;39;20047;-62
2021/06/29 01:43:22;;;;;;;43.40;24.45;;;;;;;19.98;100.00;101140.56;3599982;39;20084;-62
2021/06/29 01:45:51;;;;;;;47.78;23.58;;;;;;;19.92;100.00;101131.22;3603635;39;20125;-62
2021/06/29 01:48:21;;;;;;;41.28;22.05;;;;;;;19.88;100.00;101129.94;3600754;39;20051;-62
2021/06/29 01:50:48;;;;;;;40.65;24.60;;;;;;;19.91;100.00;101130.41;3602536;39;20114;-62
2021/06/29 01:53:16;;;;;;;45.88;25.73;;;;;;;19.93;100.00;101136.53;3604147;39;20317;-62
2021/06/29 01:55:42;;;;;;;48.63;27.80;;;;;;;19.88;100.00;101136.25;3603857;39;20048;-62
2021/06/29 01:58:09;;;;;;;55.83;30.55;;;;;;;19.86;100.00;101138.34;3604556;39;20050;-62
2021/06/29 02:00:35;;;;;;;47.95;27.08;;;;;;;19.86;100.00;101138.34;3602484;39;20055;-62
2021/06/29 02:03:02;;;;;;;53.53;30.50;;;;;;;19.90;100.00;101144.25;3603043;39;20459;-62
2021/06/29 02:05:28;;;;;;;51.55;29.80;;;;;;;19.88;100.00;101141.72;3602290;39;20041;-61
2021/06/29 02:07:55;;;;;;;45.83;27.05;;;;;;;19.96;100.00;101143.47;3602670;39;20032;-62
2021/06/29 02:10:23;;;;;;;36.22;23.15;;;;;;;19.89;100.00;101140.69;3598553;39;20060;-62
2021/06/29 02:12:50;;;;;;;35.13;23.60;;;;;;;19.86;100.00;101137.47;3602310;39;20335;-61
2021/06/29 02:15:18;;;;;;;27.50;20.52;;;;;;;19.74;100.00;101145.25;3599426;39;20055;-62
2021/06/29 02:17:45;;;;;;;25.08;19.45;;;;;;;19.69;100.00;101148.56;3605642;39;20055;-61
2021/06/29 02:20:13;;;;;;;25.00;19.58;;;;;;;19.64;100.00;101155.63;3603048;39;20055;-62
2021/06/29 02:22:39;;;;;;;24.27;19.35;;;;;;;19.66;100.00;101148.94;3604693;39;20076;-62
2021/06/29 02:25:06;;;;;;;23.95;17.33;;;;;;;19.61;100.00;101151.41;3603753;39;20047;-61
2021/06/29 02:27:34;;;;;;;24.95;18.15;;;;;;;19.53;100.00;101144.16;3602651;39;20421;-62
2021/06/29 02:30:01;;;;;;;23.00;18.35;;;;;;;19.47;100.00;101139.44;3605228;39;20044;-62
2021/06/29 02:34:54;;;;;;;23.30;17.63;;;;;;;19.36;100.00;101137.16;3614270;22;20057;-61
2021/06/29 02:37:21;;;;;;;22.23;17.35;;;;;;;19.32;100.00;101141.34;3573276;40;20056;-62
2021/06/29 02:39:47;;;;;;;26.77;19.48;;;;;;;19.34;100.00;101145.53;3568372;40;20090;-62
2021/06/29 02:42:14;;;;;;;23.38;18.20;;;;;;;19.36;100.00;101138.03;3566660;40;20424;-62
2021/06/29 02:44:42;;;;;;;26.48;18.52;;;;;;;19.19;100.00;101131.91;3565398;40;20384;-62
2021/06/29 02:47:09;;;;;;;25.67;19.88;;;;;;;19.10;100.00;101133.03;3567842;40;20049;-62
2021/06/29 02:49:36;;;;;;;24.85;20.13;;;;;;;19.11;100.00;101134.72;3569133;40;20045;-62
2021/06/29 02:52:03;;;;;;;25.23;19.92;;;;;;;19.22;100.00;101131.53;3567567;40;20053;-61
2021/06/29 02:54:29;;;;;;;24.60;19.52;;;;;;;19.17;100.00;101133.97;3567405;40;20351;-62
2021/06/29 02:56:56;;;;;;;28.33;20.70;;;;;;;19.12;100.00;101130.09;3563095;40;20084;-61
2021/06/29 02:59:23;;;;;;;28.35;21.48;;;;;;;19.08;100.00;101127.75;3563876;40;20038;-62
2021/06/29 03:01:51;;;;;;;28.88;22.67;;;;;;;19.02;100.00;101125.78;3567949;40;20042;-62
2021/06/29 03:04:18;;;;;;;28.85;21.95;;;;;;;19.04;100.00;101117.41;3566420;40;20040;-62
2021/06/29 03:06:44;;;;;;;32.72;22.95;;;;;;;18.98;100.00;101121.72;3573688;40;20048;-62
2021/06/29 03:09:11;;;;;;;29.75;23.35;;;;;;;18.91;100.00;101110.69;3564538;40;20049;-62
2021/06/29 03:11:38;;;;;;;32.22;24.05;;;;;;;18.95;100.00;101107.56;3573215;40;20061;-62
2021/06/29 03:14:06;;;;;;;32.22;24.58;;;;;;;18.99;100.00;101100.72;3567137;40;20047;-62
2021/06/29 03:16:32;;;;;;;34.58;25.75;;;;;;;19.00;100.00;101100.53;3567972;40;20036;-64
2021/06/29 03:19:00;;;;;;;30.60;24.90;;;;;;;18.98;100.00;101096.31;3569327;40;20041;-62
2021/06/29 03:21:27;;;;;;;34.88;25.45;;;;;;;19.07;100.00;101097.94;3570373;40;20052;-62
2021/06/29 03:23:53;;;;;;;34.33;24.52;;;;;;;18.98;100.00;101093.59;3572552;40;20307;-63
2021/06/29 03:26:20;;;;;;;36.88;26.83;;;;;;;18.90;100.00;101095.38;3570757;40;20054;-62
2021/06/29 03:28:46;;;;;;;36.28;25.98;;;;;;;18.91;100.00;101088.84;3570525;40;20033;-62
2021/06/29 03:31:14;;;;;;;32.60;24.42;;;;;;;18.92;100.00;101087.00;3569114;40;20047;-62
2021/06/29 03:33:40;;;;;;;32.88;25.05;;;;;;;18.93;100.00;101088.69;3572641;40;20039;-62
2021/06/29 03:36:08;;;;;;;32.63;25.15;;;;;;;19.00;100.00;101088.78;3583547;40;20076;-62
2021/06/29 03:38:35;;;;;;;34.85;24.52;;;;;;;19.00;100.00;101094.25;3585085;40;20060;-62
2021/06/29 03:41:02;;;;;;;31.15;24.55;;;;;;;18.96;100.00;101098.38;3583386;40;20362;-63
2021/06/29 03:43:28;;;;;;;37.35;25.77;;;;;;;18.94;100.00;101103.19;3584397;40;20421;-62
2021/06/29 03:45:54;;;;;;;34.08;24.67;;;;;;;18.99;100.00;101103.44;3582547;40;20059;-62
2021/06/29 03:48:21;;;;;;;33.92;25.08;;;;;;;18.87;100.00;101106.66;3660134;22;20048;-63
2021/06/29 03:50:47;;;;;;;32.35;25.75;;;;;;;18.60;100.00;101105.31;3611806;39;20391;-62
2021/06/29 03:53:15;;;;;;;33.40;25.20;;;;;;;18.69;100.00;101108.81;3610824;39;20062;-62
2021/06/29 03:55:42;;;;;;;39.55;27.50;;;;;;;18.77;100.00;101110.63;3609211;39;20042;-62
2021/06/29 03:58:08;;;;;;;36.55;25.50;;;;;;;18.75;100.00;101102.63;3607784;39;20054;-63
2021/06/29 04:00:35;;;;;;;32.72;26.13;;;;;;;18.76;100.00;101098.88;3611205;39;20150;-61
2021/06/29 04:03:01;;;;;;;36.08;26.88;;;;;;;18.76;100.00;101093.41;3611066;39;20048;-62
2021/06/29 04:05:27;;;;;;;33.30;24.77;;;;;;;18.69;100.00;101092.47;3612165;39;20056;-62
2021/06/29 04:07:54;;;;;;;38.80;27.38;;;;;;;18.67;100.00;101100.81;3669927;22;20076;-63
2021/06/29 04:10:22;;;;;;;37.15;27.27;;;;;;;18.65;100.00;101097.41;3611150;39;20036;-63
2021/06/29 04:12:48;;;;;;;40.08;28.23;;;;;;;18.55;100.00;101094.97;3613910;39;20295;-63
2021/06/29 04:15:15;;;;;;;39.05;27.67;;;;;;;18.69;100.00;101097.91;3605589;39;20052;-63
2021/06/29 04:17:41;;;;;;;35.97;28.20;;;;;;;18.69;100.00;101095.19;3610431;39;20259;-63
2021/06/29 04:20:09;;;;;;;43.30;28.92;;;;;;;18.66;100.00;101092.84;3615556;39;20057;-64
2021/06/29 04:22:36;;;;;;;38.60;28.73;;;;;;;18.65;100.00;101086.50;3606529;39;20403;-63
2021/06/29 04:25:04;;;;;;;36.67;27.20;;;;;;;18.78;100.00;101085.06;3612161;39;20047;-64
2021/06/29 04:27:32;;;;;;;40.65;28.45;;;;;;;18.83;100.00;101083.47;3610211;39;20043;-63
2021/06/29 04:29:58;;;;;;;35.65;26.73;;;;;;;18.73;100.00;101091.06;3605107;39;20048;-63
2021/06/29 04:32:25;;;;;;;39.42;27.77;;;;;;;18.80;100.00;101088.44;3605391;39;20050;-63
2021/06/29 04:34:51;;;;;;;37.58;27.65;;;;;;;18.81;100.00;101092.88;3608511;39;20396;-63
2021/06/29 04:37:18;;;;;;;35.70;26.10;;;;;;;18.85;100.00;101088.75;3614481;39;20309;-64
2021/06/29 04:39:44;;;;;;;37.95;27.65;;;;;;;18.78;100.00;101088.63;3612014;39;20046;-63
2021/06/29 04:42:11;;;;;;;38.63;27.52;;;;;;;18.88;100.00;101085.66;3614123;39;20307;-64
2021/06/29 04:44:40;;;;;;;36.08;26.40;;;;;;;18.74;100.00;101085.44;3615894;39;20035;-64
2021/06/29 04:47:07;;;;;;;35.28;26.23;;;;;;;18.83;100.00;101090.78;3613270;39;20047;-63
2021/06/29 04:49:34;;;;;;;35.85;26.70;;;;;;;18.82;100.00;101086.38;3614278;39;20079;-64
2021/06/29 04:52:00;;;;;;;42.30;29.98;;;;;;;18.77;100.00;101094.25;3611903;39;20042;-63
2021/06/29 04:54:27;;;;;;;37.15;26.95;;;;;;;18.64;100.00;101094.88;3610604;39;20047;-63
2021/06/29 04:56:53;;;;;;;41.72;27.48;;;;;;;18.52;100.00;101092.59;3612792;39;20055;-64
2021/06/29 04:59:20;;;;;;;43.88;27.85;;;;;;;18.59;100.00;101091.88;3612839;39;20051;-63
2021/06/29 05:01:47;;;;;;;39.78;29.23;;;;;;;18.78;100.00;101099.53;3612733;39;20055;-64
2021/06/29 05:04:14;;;;;;;40.15;26.65;;;;;;;18.71;100.00;101101.28;3608194;39;20400;-64
2021/06/29 05:06:41;;;;;;;38.58;25.90;;;;;;;18.65;100.00;101086.50;3613261;39;20046;-65
2021/06/29 05:09:07;;;;;;;38.90;25.88;;;;;;;18.65;100.00;101091.97;3605581;39;20045;-64
2021/06/29 05:11:33;;;;;;;36.38;25.73;;;;;;;18.64;100.00;101094.88;3606501;39;20027;-64
2021/06/29 05:14:00;;;;;;;36.35;26.33;;;;;;;18.66;100.00;101082.75;3616943;39;20039;-64
2021/06/29 05:16:26;;;;;;;33.83;25.13;;;;;;;18.72;100.00;101086.63;3614958;39;20079;-64
2021/06/29 05:18:54;;;;;;;32.72;23.73;;;;;;;18.64;100.00;101095.75;3610877;39;20055;-64
2021/06/29 05:21:20;;;;;;;31.55;22.88;;;;;;;18.81;100.00;101096.44;3612552;39;20062;-65
2021/06/29 05:23:47;;;;;;;30.40;22.58;;;;;;;18.74;100.00;101100.91;3610534;39;20057;-64
2021/06/29 05:26:14;;;;;;;35.97;24.23;;;;;;;18.71;100.00;101095.84;3612313;39;20066;-65
2021/06/29 05:28:41;;;;;;;30.90;23.08;;;;;;;18.79;100.00;101094.94;3612926;39;20092;-64
2021/06/29 05:31:07;;;;;;;28.45;20.92;;;;;;;18.72;100.00;101097.53;3604202;39;20055;-64
2021/06/29 05:33:34;;;;;;;34.50;21.35;;;;;;;18.75;100.00;101105.34;3617203;39;20047;-64
2021/06/29 05:36:02;;;;;;;30.80;22.40;;;;;;;18.70;100.00;101107.78;3607401;39;20070;-63
2021/06/29 05:38:29;;;;;;;27.90;19.52;;;;;;;18.74;100.00;101100.91;3612261;39;20293;-63
2021/06/29 05:40:55;;;;;;;30.83;21.92;;;;;;;18.55;100.00;101108.59;3613109;39;20069;-63
2021/06/29 05:43:22;;;;;;;32.35;20.48;;;;;;;18.66;100.00;101107.31;3611735;39;20064;-63
2021/06/29 05:49:01;;;;;;;36.78;22.88;;;;;;;18.62;100.00;101114.13;3617133;22;20402;-63
2021/06/29 05:51:29;;;;;;;30.43;21.53;;;;;;;18.67;100.00;101116.34;3595305;39;20418;-63
2021/06/29 05:53:56;;;;;;;30.52;19.88;;;;;;;18.60;100.00;101109.94;3596016;40;20064;-63
2021/06/29 05:56:22;;;;;;;31.80;21.40;;;;;;;18.42;100.00;101105.63;3590548;39;20099;-64
2021/06/29 05:58:49;;;;;;;26.65;19.08;;;;;;;18.42;100.00;101113.81;3595619;39;20036;-63
2021/06/29 06:01:15;;;;;;;34.55;21.70;;;;;;;18.45;100.00;101110.72;3596018;39;20058;-63
2021/06/29 06:03:41;;;;;;;31.88;22.17;;;;;;;18.41;100.00;101101.19;3596057;39;20037;-64
2021/06/29 06:06:08;;;;;;;28.63;20.08;;;;;;;18.46;100.00;101106.97;3597050;39;20044;-63
2021/06/29 06:08:36;;;;;;;30.83;21.33;;;;;;;18.38;100.00;101105.13;3596095;40;20084;-64
2021/06/29 06:11:02;;;;;;;30.83;22.08;;;;;;;18.50;100.00;101111.00;3595276;39;20096;-63
2021/06/29 06:13:29;;;;;;;29.95;19.00;;;;;;;18.47;100.00;101116.81;3596048;39;20038;-64
2021/06/29 06:15:56;;;;;;;34.00;19.80;;;;;;;18.58;100.00;101114.69;3596633;39;20279;-63
2021/06/29 06:18:23;;;;;;;30.15;19.65;;;;;;;18.64;100.00;101116.69;3595856;39;20048;-63
2021/06/29 06:20:51;;;;;;;30.30;19.38;;;;;;;18.66;100.00;101111.91;3595586;39;20042;-63
2021/06/29 06:23:17;;;;;;;35.33;19.17;;;;;;;18.56;100.00;101110.28;3595975;39;20126;-64
2021/06/29 06:25:45;;;;;;;33.60;20.02;;;;;;;18.62;100.00;101108.69;3596907;39;20284;-63
2021/06/29 06:28:12;;;;;;;34.40;16.23;;;;;;;18.53;100.00;101110.63;3597004;39;20044;-63
2021/06/29 06:30:40;;;;;;;37.70;16.15;;;;;;;18.28;100.00;101109.97;3597605;39;20040;-63
2021/06/29 06:33:07;;;;;;;30.25;13.75;;;;;;;18.31;100.00;101112.34;3597139;39;20071;-63
2021/06/29 06:35:34;;;;;;;26.33;14.57;;;;;;;18.32;100.00;101113.19;3597353;40;20423;-63
2021/06/29 06:38:01;;;;;;;25.58;13.02;;;;;;;18.27;100.00;101116.47;3597461;39;20048;-63
2021/06/29 06:40:28;;;;;;;25.20;14.27;;;;;;;18.25;100.00;101117.66;3597458;39;20047;-63
2021/06/29 06:42:56;;;;;;;28.55;14.73;;;;;;;18.30;100.00;101115.25;3596817;39;20380;-63
2021/06/29 06:45:24;;;;;;;25.80;13.82;;;;;;;18.19;100.00;101119.22;3595856;40;20101;-63
2021/06/29 06:47:50;;;;;;;24.83;13.75;;;;;;;18.36;100.00;101120.00;3596330;39;20062;-63
2021/06/29 06:50:17;;;;;;;28.15;14.35;;;;;;;18.39;100.00;101117.72;3595532;39;20036;-63
2021/06/29 06:52:43;;;;;;;24.77;14.48;;;;;;;18.26;100.00;101113.94;3596240;39;20084;-63
2021/06/29 06:55:10;;;;;;;26.08;14.40;;;;;;;18.28;100.00;101117.31;3595739;39;20076;-63
2021/06/29 06:57:37;;;;;;;24.77;14.82;;;;;;;18.30;100.00;101118.84;3596935;39;20524;-62
2021/06/29 07:00:06;;;;;;;25.48;14.20;;;;;;;18.25;100.00;101118.50;3597224;39;20036;-63
2021/06/29 07:02:33;;;;;;;26.17;15.00;;;;;;;18.30;100.00;101117.97;3595935;39;20041;-65
2021/06/29 07:04:59;;;;;;;28.58;15.45;;;;;;;18.41;100.00;101111.25;3596735;39;20083;-66
2021/06/29 07:07:26;;;;;;;36.92;17.65;;;;;;;18.47;100.00;101105.91;3594172;39;20040;-65
2021/06/29 07:09:52;;;;;;;29.33;15.93;;;;;;;18.42;100.00;101107.50;3593403;39;20037;-63
2021/06/29 07:12:19;;;;;;;32.40;17.10;;;;;;;18.42;100.00;101108.34;3589611;40;20068;-63
2021/06/29 07:14:45;;;;;;;25.52;16.15;;;;;;;18.44;100.00;101113.63;3590974;40;20064;-64
2021/06/29 07:17:13;;;;;;;29.65;18.00;;;;;;;18.32;100.00;101119.47;3588154;39;20055;-64
2021/06/29 07:19:39;;;;;;;30.67;17.65;;;;;;;18.39;100.00;101122.34;3589603;40;20063;-63
2021/06/29 07:22:06;;;;;;;30.77;18.13;;;;;;;18.31;100.00;101133.28;3588803;39;20062;-64
2021/06/29 07:24:32;;;;;;;33.67;18.52;;;;;;;18.35;100.00;101130.03;3589812;40;20032;-64
2021/06/29 07:26:59;;;;;;;31.98;18.65;;;;;;;18.38;100.00;101124.22;3589922;40;20037;-63
2021/06/29 07:29:25;;;;;;;30.15;17.17;;;;;;;18.45;100.00;101121.63;3588605;39;20146;-63
2021/06/29 07:34:24;;;;;;;28.33;15.98;;;;;;;18.69;100.00;101126.00;3663710;22;20305;-63
2021/06/29 07:36:51;;;;;;;25.52;16.40;;;;;;;18.79;100.00;101125.78;3608755;39;20304;-63
2021/06/29 07:39:17;;;;;;;27.33;15.60;;;;;;;18.86;100.00;101117.72;3608324;39;20054;-63
2021/06/29 07:41:44;;;;;;;27.17;15.82;;;;;;;19.16;100.00;101115.91;3609287;39;20043;-63
2021/06/29 07:44:10;;;;;;;24.98;15.35;;;;;;;19.38;100.00;101116.00;3607921;39;20081;-63
2021/06/29 07:46:37;;;;;;;20.48;14.10;;;;;;;19.67;100.00;101119.75;3609145;39;20080;-62
2021/06/29 07:49:04;;;;;;;24.02;14.77;;;;;;;19.25;100.00;101120.22;3607230;39;20059;-63
2021/06/29 07:51:32;;;;;;;25.02;15.02;;;;;;;19.18;100.00;101127.47;3609468;39;20043;-63
2021/06/29 07:53:58;;;;;;;23.80;14.05;;;;;;;19.13;100.00;101119.00;3608687;39;20040;-63
2021/06/29 07:56:25;;;;;;;19.52;13.50;;;;;;;18.99;100.00;101114.38;3606686;39;20050;-62
2021/06/29 07:58:52;;;;;;;20.45;12.52;;;;;;;19.24;100.00;101117.69;3608036;39;20038;-62
2021/06/29 08:01:20;;;;;;;18.33;12.48;;;;;;;19.52;100.00;101120.63;3607047;39;20306;-62
2021/06/29 08:03:47;;;;;;;20.15;12.82;;;;;;;19.43;100.00;101124.47;3606753;39;20039;-63
2021/06/29 08:06:14;;;;;;;19.55;12.98;;;;;;;19.45;100.00;101114.22;3607391;39;20056;-62
2021/06/29 08:08:42;;;;;;;22.63;13.43;;;;;;;19.53;100.00;101110.56;3608422;39;20347;-63
2021/06/29 08:11:10;;;;;;;18.23;12.32;;;;;;;19.66;100.00;101109.88;3610194;39;20047;-63
2021/06/29 08:13:38;;;;;;;19.33;13.10;;;;;;;19.50;100.00;101102.75;3608883;39;20051;-63
2021/06/29 08:16:05;;;;;;;22.73;13.50;;;;;;;19.48;100.00;101102.06;3609188;39;20061;-63
2021/06/29 08:18:33;;;;;;;20.15;11.32;;;;;;;19.71;100.00;101104.69;3610941;39;20068;-62
2021/06/29 08:21:00;;;;;;;13.00;9.77;;;;;;;19.86;100.00;101110.16;3611012;39;20062;-63
2021/06/29 08:23:28;;;;;;;16.20;10.98;;;;;;;20.17;100.00;101119.97;3610056;39;20127;-63
2021/06/29 08:25:56;;;;;;;15.98;11.00;;;;;;;19.76;100.00;101121.38;3611724;39;20039;-63
2021/06/29 08:28:22;;;;;;;14.40;9.80;;;;;;;19.90;100.00;101117.75;3610726;39;20329;-63
2021/06/29 08:30:50;;;;;;;13.05;9.07;;;;;;;20.41;100.00;101129.69;3611525;39;20047;-63
2021/06/29 08:33:21;;;;;;;12.73;8.30;;;;;;;20.49;100.00;101118.63;3610766;39;20045;-62
2021/06/29 08:35:48;;;;;;;10.63;8.18;;;;;;;20.93;100.00;101130.41;3611834;39;20055;-63
2021/06/29 08:38:16;;;;;;;13.10;8.18;;;;;;;21.02;100.00;101136.59;3610726;39;20045;-63
2021/06/29 08:40:44;;;;;;;9.35;7.30;;;;;;;20.69;100.00;101131.69;3610408;39;20044;-63
2021/06/29 08:43:13;;;;;;;10.50;7.10;;;;;;;20.65;100.00;101126.56;3610789;39;20065;-63
2021/06/29 08:45:40;;;;;;;8.90;6.68;;;;;;;20.86;100.00;101116.66;3610590;39;20261;-63
2021/06/29 08:48:07;;;;;;;11.30;6.88;;;;;;;20.99;100.00;101127.75;3610356;39;20488;-62
2021/06/29 08:50:34;;;;;;;10.32;7.25;;;;;;;21.03;100.00;101128.19;3611423;39;20055;-62
2021/06/29 08:53:03;;;;;;;12.68;7.68;;;;;;;20.18;100.00;101118.94;3610062;39;20504;-62
2021/06/29 08:55:34;;;;;;;10.45;7.50;;;;;;;20.14;100.00;101118.50;3611918;39;20047;-62
2021/06/29 08:58:00;;;;;;;9.10;6.90;;;;;;;20.25;100.00;101126.16;3610750;39;20070;-61
2021/06/29 09:00:28;;;;;;;9.82;7.25;;;;;;;20.49;100.00;101126.81;3610856;39;20046;-61
2021/06/29 09:02:55;;;;;;;7.65;6.85;;;;;;;20.41;100.00;101132.44;3611669;39;20076;-61
2021/06/29 09:05:23;;;;;;;9.73;6.38;;;;;;;20.48;100.00;101133.34;3610542;39;20054;-63
2021/06/29 09:08:00;;;;;;;8.05;5.93;;;;;;;20.71;100.00;101135.06;3610423;39;20099;-62
2021/06/29 09:10:27;;;;;;;8.77;6.75;;;;;;;21.05;100.00;101134.28;3610481;39;20053;-62
2021/06/29 09:12:54;;;;;;;9.07;6.95;;;;;;;20.84;100.00;101132.44;3611133;39;20347;-62
2021/06/29 09:15:49;;;;;;;8.20;7.13;;;;;;;20.60;100.00;101131.78;3610227;39;20047;-61
2021/06/29 09:18:24;;;;;;;9.73;7.78;;;;;;;20.11;100.00;101129.78;3610118;39;20040;-61
2021/06/29 09:20:54;;;;;;;10.18;8.52;;;;;;;20.34;100.00;101134.25;3611238;39;20402;-62
2021/06/29 09:23:24;;;;;;;11.15;8.20;;;;;;;20.33;100.00;101135.28;3609844;39;20081;-62
2021/06/29 09:25:54;;;;;;;9.15;7.68;;;;;;;20.23;100.00;101131.00;3610758;39;20059;-62
2021/06/29 09:28:23;;;;;;;8.80;7.60;;;;;;;20.08;100.00;101138.38;3610594;39;20055;-62
2021/06/29 09:30:51;;;;;;;9.98;8.20;;;;;;;19.87;100.00;101120.88;3610496;39;20051;-62
2021/06/29 09:33:22;;;;;;;10.98;8.65;;;;;;;19.83;100.00;101127.78;3609521;39;20109;-62
2021/06/29 09:35:51;;;;;;;9.57;7.93;;;;;;;20.35;100.00;101130.50;3611061;39;20039;-62
2021/06/29 09:38:21;;;;;;;10.85;8.43;;;;;;;20.29;100.00;101122.00;3609867;39;20075;-62
2021/06/29 09:40:56;;;;;;;9.23;7.25;;;;;;;20.36;100.00;101115.75;3611145;39;20055;-62
2021/06/29 09:43:24;;;;;;;8.10;6.65;;;;;;;20.28;100.00;101124.94;3609088;39;20058;-62
2021/06/29 09:45:54;;;;;;;7.57;6.30;;;;;;;20.07;100.00;101125.75;3610725;39;20047;-62
2021/06/29 09:48:32;;;;;;;6.97;4.95;;;;;;;20.07;100.00;101120.28;3610043;39;20043;-62
2021/06/29 09:51:02;;;;;;;8.10;4.93;;;;;;;20.08;100.00;101121.97;3610800;39;20059;-62
2021/06/29 09:53:31;;;;;;;5.68;3.58;;;;;;;20.06;100.00;101110.41;3610351;39;20055;-63
2021/06/29 09:55:58;;;;;;;;;;;;;;;20.39;100.00;101116.22;3611800;39;20043;-63
2021/06/29 09:58:26;;;;;;;4.05;3.00;;;;;;;20.48;100.00;101115.06;3609288;39;19938;-62
2021/06/29 10:00:54;;;;;;;3.50;2.50;;;;;;;20.40;100.00;101117.91;3609850;39;20047;-63
2021/06/29 10:06:02;;;;;;;3.55;2.13;;;;;;;20.22;100.00;101114.78;3675211;22;20066;-63
2021/06/29 10:08:34;;;;;;;2.78;2.13;;;;;;;20.01;100.00;101118.31;3621795;39;20058;-62
2021/06/29 10:11:19;;;;;;;2.50;2.08;;;;;;;19.97;100.00;101112.41;3621713;39;20039;-62
2021/06/29 10:16:39;;;;;;;3.58;2.15;;;;;;;19.73;100.00;101127.22;3638950;22;20051;-63
2021/06/29 10:19:17;;;;;;;3.05;1.95;;;;;;;19.66;100.00;101120.81;3608974;39;20078;-63
2021/06/29 10:21:48;;;;;;;4.65;1.70;;;;;;;19.69;100.00;101121.25;3609114;39;20036;-63
2021/06/29 10:24:16;;;;;;;2.00;1.70;;;;;;;19.77;100.00;101131.22;3609129;39;20039;-62
2021/06/29 10:26:44;;;;;;;2.95;2.00;;;;;;;19.76;100.00;101126.81;3609406;39;20052;-62
2021/06/29 10:29:13;;;;;;;4.55;1.98;;;;;;;19.87;100.00;101128.25;3609978;39;20051;-62
2021/06/29 10:31:42;;;;;;;2.63;2.40;;;;;;;19.80;100.00;101133.59;3610825;39;20417;-62
2021/06/29 10:34:12;;;;;;;3.95;2.97;;;;;;;19.87;100.00;101131.81;3610641;39;20390;-62
2021/06/29 10:36:42;;;;;;;3.92;3.10;;;;;;;19.80;100.00;101127.31;3609775;39;20449;-62
2021/06/29 10:39:10;;;;;;;5.32;3.80;;;;;;;19.75;100.00;101128.69;3609008;39;20416;-62
2021/06/29 10:41:39;;;;;;;4.33;3.90;;;;;;;19.49;100.00;101131.91;3609309;39;20321;-63
2021/06/29 10:44:09;;;;;;;;;;;;;;;19.47;100.00;101144.91;3610502;39;20042;-63
2021/06/29 10:46:41;;;;;;;4.40;3.97;;;;;;;19.64;100.00;101136.50;3611683;39;19938;-63
2021/06/29 10:49:31;;;;;;;4.93;4.40;;;;;;;19.67;100.00;101136.13;3611002;39;20348;-63
2021/06/29 10:51:58;;;;;;;6.25;4.22;;;;;;;19.84;100.00;101134.94;3603444;39;20398;-63
2021/06/29 10:54:40;;;;;;;5.93;4.18;;;;;;;19.75;100.00;101146.97;3609075;39;20520;-62
2021/06/29 10:57:10;;;;;;;4.70;4.13;;;;;;;19.80;100.00;101125.41;3609156;39;20071;-62
2021/06/29 10:59:39;;;;;;;5.40;3.70;;;;;;;19.68;100.00;101126.91;3607719;39;20055;-62
2021/06/29 11:02:05;;;;;;;4.40;3.65;;;;;;;19.86;100.00;101132.88;3609218;39;20047;-62
2021/06/29 11:04:55;;;;;;;6.68;3.38;;;;;;;19.75;100.00;101130.59;3609669;39;20055;-63
2021/06/29 11:07:45;;;;;;;4.22;3.20;;;;;;;19.78;100.00;101128.34;3609484;39;20078;-62
2021/06/29 11:10:15;;;;;;;3.75;3.00;;;;;;;19.68;100.00;101121.47;3609017;39;20555;-62
2021/06/29 11:12:49;;;;;;;4.50;3.70;;;;;;;19.72;100.00;101136.44;3609838;39;20063;-62
2021/06/29 11:15:18;;;;;;;5.05;4.50;;;;;;;19.72;100.00;101140.00;3608368;39;20040;-63
2021/06/29 11:17:59;;;;;;;6.15;4.82;;;;;;;19.51;100.00;101126.28;3610101;39;20293;-63
2021/06/29 11:20:37;;;;;;;4.65;3.97;;;;;;;19.43;100.00;101127.19;3609373;39;20047;-62
2021/06/29 11:23:05;;;;;;;5.70;4.47;;;;;;;19.16;100.00;101135.00;3608765;39;20325;-63
2021/06/29 11:25:54;;;;;;;6.07;4.90;;;;;;;19.15;100.00;101129.72;3609402;39;20039;-63
2021/06/29 11:28:26;;;;;;;5.55;4.95;;;;;;;19.15;100.00;101130.56;3610192;39;20575;-64